createdAt,value
2023-02-13T00:01:52.945Z,103357.19
2023-02-13T00:04:19.298Z,103358.97
2023-02-13T00:06:47.690Z,103355.44
2023-02-13T00:09:14.711Z,103345.78
2023-02-13T00:11:41.215Z,103350.97
2023-02-13T00:14:07.621Z,103351.13
2023-02-13T00:16:34.360Z,103343.03
2023-02-13T00:19:00.686Z,103342.28
2023-02-13T00:21:27.061Z,103340.38
2023-02-13T00:23:53.437Z,103340.44
2023-02-13T00:26:19.885Z,103333.47
2023-02-13T00:28:47.386Z,103332.63
2023-02-13T00:31:17.682Z,103328.13
2023-02-13T00:33:44.524Z,103330.72
2023-02-13T00:36:16.600Z,103338.81
2023-02-13T00:38:44.585Z,103339.66
2023-02-13T00:41:12.337Z,103336.22
2023-02-13T00:43:38.872Z,103336.06
2023-02-13T00:46:06.306Z,103345.78
2023-02-13T00:48:34.429Z,103336.88
2023-02-13T00:51:01.355Z,103341.31
2023-02-13T00:53:30.728Z,103336.00
2023-02-13T00:55:57.156Z,103343.06
2023-02-13T00:58:24.273Z,103333.47
2023-02-13T01:00:52.654Z,103333.41
2023-02-13T01:03:19.636Z,103328.94
2023-02-13T01:05:46.778Z,103338.69
2023-02-13T01:08:14.162Z,103340.44
2023-02-13T01:10:41.703Z,103331.59
2023-02-13T01:13:08.915Z,103331.66
2023-02-13T01:15:35.757Z,103337.72
2023-02-13T01:18:02.221Z,103331.59
2023-02-13T01:20:29.696Z,103334.22
2023-02-13T01:22:58.061Z,103333.31
2023-02-13T01:25:25.017Z,103328.00
2023-02-13T01:27:51.595Z,103324.41
2023-02-13T01:30:19.178Z,103329.78
2023-02-13T01:32:47.692Z,103329.84
2023-02-13T01:35:15.264Z,103328.94
2023-02-13T01:37:42.168Z,103329.78
2023-02-13T01:40:12.010Z,103335.13
2023-02-13T01:42:38.886Z,103331.59
2023-02-13T01:45:22.502Z,103327.16
2023-02-13T01:48:07.211Z,103327.03
2023-02-13T01:50:39.623Z,103318.13
2023-02-13T01:53:30.480Z,103315.53
2023-02-13T01:56:21.443Z,103319.97
2023-02-13T01:58:51.158Z,103315.53
2023-02-13T02:01:17.627Z,103311.03
2023-02-13T02:03:47.602Z,103318.19
2023-02-13T02:06:23.863Z,103308.31
2023-02-13T02:08:53.652Z,103305.69
2023-02-13T02:11:30.498Z,103302.19
2023-02-13T02:13:58.147Z,103307.53
2023-02-13T02:16:33.343Z,103304.84
2023-02-13T02:19:04.174Z,103299.50
2023-02-13T02:21:46.125Z,103297.78
2023-02-13T02:24:47.636Z,103295.06
2023-02-13T02:27:40.279Z,103301.28
2023-02-13T02:30:46.304Z,103302.19
2023-02-13T02:33:34.145Z,103302.25
2023-02-13T02:36:05.291Z,103298.75
2023-02-13T02:38:35.383Z,103302.31
2023-02-13T02:41:42.760Z,103294.25
2023-02-13T02:44:38.903Z,103304.06
2023-02-13T02:47:47.856Z,103299.50
2023-02-13T02:50:32.811Z,103294.19
2023-02-13T02:53:38.207Z,103292.38
2023-02-13T02:56:14.465Z,103299.66
2023-02-13T02:59:12.640Z,103302.25
2023-02-13T03:01:59.387Z,103295.13
2023-02-13T03:04:52.071Z,103292.59
2023-02-13T03:07:19.476Z,103301.50
2023-02-13T03:10:08.331Z,103296.97
2023-02-13T03:13:02.518Z,103300.66
2023-02-13T03:15:29.859Z,103306.00
2023-02-13T03:18:16.612Z,103299.69
2023-02-13T03:21:07.867Z,103297.94
2023-02-13T03:24:02.406Z,103294.25
2023-02-13T03:26:50.139Z,103300.47
2023-02-13T03:29:48.601Z,103304.00
2023-02-13T03:32:17.669Z,103300.53
2023-02-13T03:35:11.715Z,103317.41
2023-02-13T03:37:57.018Z,103301.53
2023-02-13T03:40:36.651Z,103308.03
2023-02-13T03:43:16.570Z,103311.34
2023-02-13T03:45:53.399Z,103308.69
2023-02-13T03:48:47.549Z,103315.91
2023-02-13T03:51:20.373Z,103314.16
2023-02-13T03:53:52.377Z,103316.03
2023-02-13T03:56:40.473Z,103319.56
2023-02-13T03:59:17.634Z,103320.50
2023-02-13T04:01:51.403Z,103317.97
2023-02-13T04:04:48.251Z,103320.66
2023-02-13T04:07:29.463Z,103318.00
2023-02-13T04:10:00.446Z,103309.91
2023-02-13T04:12:50.646Z,103316.25
2023-02-13T04:15:24.470Z,103320.66
2023-02-13T04:18:05.379Z,103318.94
2023-02-13T04:20:32.605Z,103314.50
2023-02-13T04:23:05.774Z,103325.19
2023-02-13T04:25:32.355Z,103320.78
2023-02-13T04:27:58.700Z,103313.72
2023-02-13T04:30:25.151Z,103316.38
2023-02-13T04:32:52.778Z,103319.91
2023-02-13T04:35:19.202Z,103323.47
2023-02-13T04:37:45.558Z,103318.03
2023-02-13T04:40:12.174Z,103317.28
2023-02-13T04:42:38.531Z,103317.41
2023-02-13T04:45:05.229Z,103319.13
2023-02-13T04:47:31.571Z,103316.44
2023-02-13T04:49:57.954Z,103320.94
2023-02-13T04:52:24.330Z,103318.25
2023-02-13T04:54:50.723Z,103317.44
2023-02-13T04:57:17.042Z,103319.13
2023-02-13T04:59:43.567Z,103307.72
2023-02-13T05:02:10.058Z,103312.06
2023-02-13T05:04:36.414Z,103319.25
2023-02-13T05:07:02.818Z,103308.59
2023-02-13T05:09:29.187Z,103310.53
2023-02-13T05:11:55.661Z,103310.47
2023-02-13T05:14:22.146Z,103308.53
2023-02-13T05:16:49.666Z,103309.53
2023-02-13T05:19:16.884Z,103305.13
2023-02-13T05:22:01.731Z,103306.00
2023-02-13T05:24:28.106Z,103307.81
2023-02-13T05:26:54.447Z,103308.75
2023-02-13T05:29:22.446Z,103304.28
2023-02-13T05:31:55.035Z,103302.47
2023-02-13T05:34:22.959Z,103299.78
2023-02-13T05:36:49.915Z,103302.47
2023-02-13T05:39:16.402Z,103301.66
2023-02-13T05:41:44.393Z,103294.66
2023-02-13T05:44:11.732Z,103296.34
2023-02-13T05:46:39.988Z,103293.66
2023-02-13T05:49:07.671Z,103294.59
2023-02-13T05:51:34.118Z,103293.59
2023-02-13T05:54:00.507Z,103298.06
2023-02-13T05:56:26.975Z,103304.28
2023-02-13T05:58:57.172Z,103303.38
2023-02-13T06:01:24.614Z,103306.00
2023-02-13T06:03:51.578Z,103302.47
2023-02-13T06:06:18.218Z,103314.97
2023-02-13T06:08:44.629Z,103306.94
2023-02-13T06:11:12.308Z,103299.81
2023-02-13T06:13:40.623Z,103298.06
2023-02-13T06:16:11.672Z,103299.78
2023-02-13T06:18:39.161Z,103292.81
2023-02-13T06:21:06.712Z,103298.06
2023-02-13T06:23:33.178Z,103285.63
2023-02-13T06:26:07.517Z,103288.41
2023-02-13T06:28:34.486Z,103283.09
2023-02-13T06:31:01.802Z,103291.13
2023-02-13T06:33:28.560Z,103285.00
2023-02-13T06:35:54.900Z,103283.22
2023-02-13T06:38:21.451Z,103289.47
2023-02-13T06:40:48.870Z,103283.34
2023-02-13T06:43:16.126Z,103287.88
2023-02-13T06:45:42.479Z,103294.13
2023-02-13T06:48:09.449Z,103292.44
2023-02-13T06:50:36.179Z,103296.03
2023-02-13T06:53:02.513Z,103298.75
2023-02-13T06:55:29.002Z,103295.28
2023-02-13T06:57:55.347Z,103301.47
2023-02-13T07:00:21.915Z,103296.25
2023-02-13T07:02:48.484Z,103300.75
2023-02-13T07:05:15.241Z,103301.75
2023-02-13T07:07:42.731Z,103302.75
2023-02-13T07:10:11.913Z,103301.13
2023-02-13T07:12:38.460Z,103304.69
2023-02-13T07:15:06.291Z,103304.75
2023-02-13T07:17:33.839Z,103312.72
2023-02-13T07:20:00.222Z,103307.47
2023-02-13T07:22:26.564Z,103311.00
2023-02-13T07:24:52.897Z,103306.59
2023-02-13T07:27:19.262Z,103312.81
2023-02-13T07:29:45.598Z,103310.16
2023-02-13T07:32:12.018Z,103311.03
2023-02-13T07:34:39.919Z,103315.47
2023-02-13T07:37:09.058Z,103318.13
2023-02-13T07:39:38.725Z,103311.84
2023-02-13T07:42:06.218Z,103314.47
2023-02-13T07:44:32.891Z,103319.69
2023-02-13T07:47:00.941Z,103324.97
2023-02-13T07:49:27.337Z,103328.44
2023-02-13T07:51:56.347Z,103319.41
2023-02-13T07:54:22.673Z,103322.00
2023-02-13T07:56:48.985Z,103322.78
2023-02-13T07:59:15.684Z,103324.44
2023-02-13T08:01:42.041Z,103327.88
2023-02-13T08:04:08.482Z,103332.19
2023-02-13T08:06:34.883Z,103329.44
2023-02-13T08:09:19.859Z,103331.16
2023-02-13T08:11:55.070Z,103334.56
2023-02-13T08:14:26.568Z,103338.03
2023-02-13T08:16:54.415Z,103332.66
2023-02-13T08:19:21.188Z,103342.25
2023-02-13T08:21:47.652Z,103345.78
2023-02-13T08:24:14.016Z,103333.28
2023-02-13T08:26:40.438Z,103340.25
2023-02-13T08:29:07.354Z,103340.09
2023-02-13T08:31:33.990Z,103331.22
2023-02-13T08:34:00.584Z,103332.97
2023-02-13T08:36:27.136Z,103334.69
2023-02-13T08:38:53.482Z,103337.16
2023-02-13T08:41:22.025Z,103333.69
2023-02-13T08:43:49.762Z,103340.75
2023-02-13T08:46:17.252Z,103335.34
2023-02-13T08:48:43.859Z,103339.59
2023-02-13T08:51:11.840Z,103339.53
2023-02-13T08:53:38.980Z,103346.59
2023-02-13T08:56:06.380Z,103336.69
2023-02-13T08:58:33.097Z,103334.75
2023-02-13T09:00:59.452Z,103339.13
2023-02-13T09:03:25.798Z,103344.41
2023-02-13T09:05:52.203Z,103346.13
2023-02-13T09:08:19.037Z,103343.38
2023-02-13T09:10:45.527Z,103342.25
2023-02-13T09:13:12.512Z,103332.09
2023-02-13T09:15:42.927Z,103333.59
2023-02-13T09:18:09.420Z,103335.09
2023-02-13T09:20:36.223Z,103334.81
2023-02-13T09:23:03.650Z,103327.75
2023-02-13T09:25:31.229Z,103324.75
2023-02-13T09:27:59.549Z,103332.53
2023-02-13T09:30:26.160Z,103334.78
2023-02-13T09:32:53.717Z,103339.72
2023-02-13T09:35:20.935Z,103327.84
2023-02-13T09:37:47.383Z,103327.59
2023-02-13T09:40:23.015Z,103334.59
2023-02-13T09:42:50.073Z,103334.59
2023-02-13T09:45:20.360Z,103336.19
2023-02-13T09:47:47.562Z,103336.78
2023-02-13T09:50:25.383Z,103331.16
2023-02-13T09:52:54.463Z,103337.56
2023-02-13T09:55:29.508Z,103342.00
2023-02-13T09:58:08.642Z,103335.50
2023-02-13T10:00:40.118Z,103348.91
2023-02-13T10:03:23.533Z,103351.16
2023-02-13T10:06:05.819Z,103340.78
2023-02-13T10:08:49.704Z,103342.13
2023-02-13T10:11:25.904Z,103347.06
2023-02-13T10:14:00.261Z,103342.06
2023-02-13T10:17:02.236Z,103344.50
2023-02-13T10:19:35.368Z,103336.69
2023-02-13T10:22:10.971Z,103336.75
2023-02-13T10:24:44.409Z,103337.03
2023-02-13T10:27:34.852Z,103335.53
2023-02-13T10:30:12.798Z,103337.53
2023-02-13T10:32:52.061Z,103343.34
2023-02-13T10:35:29.114Z,103333.28
2023-02-13T10:37:59.266Z,103331.59
2023-02-13T10:40:33.562Z,103326.38
2023-02-13T10:43:10.556Z,103332.50
2023-02-13T10:45:55.371Z,103325.78
2023-02-13T10:48:49.824Z,103328.06
2023-02-13T10:51:31.226Z,103329.25
2023-02-13T10:54:39.207Z,103321.88
2023-02-13T10:57:22.120Z,103322.81
2023-02-13T11:00:07.957Z,103318.47
2023-02-13T11:02:35.702Z,103305.84
2023-02-13T11:05:14.056Z,103312.13
2023-02-13T11:07:42.267Z,103308.88
2023-02-13T11:10:24.945Z,103305.94
2023-02-13T11:12:52.417Z,103299.75
2023-02-13T11:15:30.051Z,103296.31
2023-02-13T11:18:14.776Z,103292.38
2023-02-13T11:20:46.654Z,103288.44
2023-02-13T11:23:25.182Z,103280.78
2023-02-13T11:26:02.717Z,103280.09
2023-02-13T11:28:31.789Z,103280.63
2023-02-13T11:31:24.647Z,103277.66
2023-02-13T11:33:51.150Z,103270.59
2023-02-13T11:36:37.789Z,103270.31
2023-02-13T11:39:17.046Z,103264.13
2023-02-13T11:41:45.482Z,103268.31
2023-02-13T11:44:26.162Z,103272.75
2023-02-13T11:46:55.745Z,103264.53
2023-02-13T11:49:32.731Z,103259.38
2023-02-13T11:52:27.573Z,103266.25
2023-02-13T11:54:59.606Z,103264.41
2023-02-13T11:57:35.746Z,103258.22
2023-02-13T12:00:54.264Z,103256.09
2023-02-13T12:03:29.449Z,103261.22
2023-02-13T12:06:14.114Z,103247.44
2023-02-13T12:08:44.033Z,103241.19
2023-02-13T12:11:22.320Z,103249.50
2023-02-13T12:13:49.454Z,103249.44
2023-02-13T12:16:36.400Z,103238.81
2023-02-13T12:19:07.516Z,103244.88
2023-02-13T12:21:48.637Z,103243.50
2023-02-13T12:24:33.954Z,103232.09
2023-02-13T12:27:23.423Z,103239.63
2023-02-13T12:29:55.781Z,103228.47
2023-02-13T12:32:56.040Z,103221.53
2023-02-13T12:35:55.071Z,103213.25
2023-02-13T12:38:57.198Z,103206.09
2023-02-13T12:41:33.153Z,103211.75
2023-02-13T12:44:41.452Z,103201.84
2023-02-13T12:47:22.426Z,103198.66
2023-02-13T12:50:06.923Z,103193.69
2023-02-13T12:52:47.070Z,103185.84
2023-02-13T12:55:22.924Z,103185.34
2023-02-13T12:58:12.227Z,103180.69
2023-02-13T13:00:59.825Z,103183.38
2023-02-13T13:03:49.639Z,103183.88
2023-02-13T13:06:29.918Z,103181.41
2023-02-13T13:09:17.089Z,103178.91
2023-02-13T13:12:24.961Z,103169.56
2023-02-13T13:14:57.422Z,103169.72
2023-02-13T13:17:32.948Z,103170.97
2023-02-13T13:20:23.012Z,103171.38
2023-02-13T13:22:56.987Z,103169.31
2023-02-13T13:25:46.064Z,103163.03
2023-02-13T13:28:29.523Z,103170.81
2023-02-13T13:30:58.784Z,103165.75
2023-02-13T13:33:28.033Z,103166.75
2023-02-13T13:36:07.413Z,103155.84
2023-02-13T13:38:51.741Z,103154.88
2023-02-13T13:41:33.393Z,103148.78
2023-02-13T13:44:41.230Z,103151.88
2023-02-13T13:47:36.620Z,103151.25
2023-02-13T13:50:05.891Z,103147.09
2023-02-13T13:52:35.071Z,103146.41
2023-02-13T13:55:04.271Z,103147.00
2023-02-13T13:57:42.886Z,103145.78
2023-02-13T14:00:09.936Z,103145.88
2023-02-13T14:03:10.834Z,103140.81
2023-02-13T14:06:01.874Z,103130.19
2023-02-13T14:08:56.067Z,103124.09
2023-02-13T14:11:33.376Z,103121.25
2023-02-13T14:14:00.463Z,103122.25
2023-02-13T14:16:46.285Z,103124.69
2023-02-13T14:19:35.535Z,103122.06
2023-02-13T14:22:20.096Z,103118.91
2023-02-13T14:24:51.244Z,103118.69
2023-02-13T14:27:27.305Z,103110.22
2023-02-13T14:29:55.802Z,103107.13
2023-02-13T14:32:30.928Z,103112.50
2023-02-13T14:35:01.440Z,103118.31
2023-02-13T14:37:35.051Z,103117.44
2023-02-13T14:40:28.433Z,103108.72
2023-02-13T14:42:58.749Z,103114.31
2023-02-13T14:45:46.693Z,103101.31
2023-02-13T14:48:15.495Z,103106.28
2023-02-13T14:50:51.636Z,103095.66
2023-02-13T14:53:28.663Z,103095.13
2023-02-13T14:56:07.208Z,103095.81
2023-02-13T14:58:37.018Z,103091.22
2023-02-13T15:01:07.949Z,103102.22
2023-02-13T15:03:34.280Z,103101.03
2023-02-13T15:06:05.666Z,103101.66
2023-02-13T15:08:38.078Z,103102.69
2023-02-13T15:11:04.506Z,103096.75
2023-02-13T15:13:37.186Z,103098.75
2023-02-13T15:16:11.748Z,103096.19
2023-02-13T15:18:45.248Z,103091.69
2023-02-13T15:21:18.391Z,103087.81
2023-02-13T15:23:50.175Z,103095.22
2023-02-13T15:26:23.857Z,103095.31
2023-02-13T15:29:09.127Z,103095.41
2023-02-13T15:31:38.154Z,103091.56
2023-02-13T15:34:20.398Z,103091.75
2023-02-13T15:36:47.711Z,103091.16
2023-02-13T15:39:20.538Z,103089.41
2023-02-13T15:41:50.487Z,103087.59
2023-02-13T15:44:20.653Z,103093.38
2023-02-13T15:46:48.426Z,103083.56
2023-02-13T15:49:22.136Z,103089.59
2023-02-13T15:51:49.100Z,103085.97
2023-02-13T15:54:31.062Z,103087.53
2023-02-13T15:57:00.785Z,103087.91
2023-02-13T15:59:33.559Z,103087.72
2023-02-13T16:02:01.014Z,103088.59
2023-02-13T16:04:28.313Z,103083.69
2023-02-13T16:06:56.360Z,103083.03
2023-02-13T16:09:34.211Z,103088.59
2023-02-13T16:12:28.134Z,103088.91
2023-02-13T16:15:02.154Z,103088.78
2023-02-13T16:17:37.459Z,103088.38
2023-02-13T16:20:27.192Z,103091.09
2023-02-13T16:22:59.063Z,103091.69
2023-02-13T16:25:38.255Z,103091.84
2023-02-13T16:28:18.276Z,103080.47
2023-02-13T16:30:59.286Z,103075.31
2023-02-13T16:33:44.552Z,103079.34
2023-02-13T16:36:10.849Z,103081.47
2023-02-13T16:38:48.198Z,103078.81
2023-02-13T16:41:17.594Z,103086.34
2023-02-13T16:44:03.510Z,103084.00
2023-02-13T16:46:41.062Z,103076.47
2023-02-13T16:49:10.791Z,103079.50
2023-02-13T16:51:48.003Z,103083.31
2023-02-13T16:54:20.411Z,103089.75
2023-02-13T16:57:18.045Z,103086.97
2023-02-13T16:59:47.407Z,103092.81
2023-02-13T17:02:27.499Z,103096.13
2023-02-13T17:05:09.171Z,103094.41
2023-02-13T17:07:48.250Z,103105.44
2023-02-13T17:10:34.961Z,103108.78
2023-02-13T17:13:11.448Z,103112.16
2023-02-13T17:15:41.879Z,103115.13
2023-02-13T17:18:08.271Z,103111.69
2023-02-13T17:20:36.077Z,103117.56
2023-02-13T17:23:05.644Z,103111.63
2023-02-13T17:25:35.252Z,103117.69
2023-02-13T17:28:17.506Z,103124.22
2023-02-13T17:30:45.007Z,103126.31
2023-02-13T17:33:14.562Z,103127.16
2023-02-13T17:35:40.998Z,103128.97
2023-02-13T17:38:09.441Z,103132.03
2023-02-13T17:40:36.495Z,103131.28
2023-02-13T17:43:04.708Z,103129.78
2023-02-13T17:45:33.655Z,103132.91
2023-02-13T17:48:00.167Z,103131.25
2023-02-13T17:50:28.724Z,103135.88
2023-02-13T17:52:55.612Z,103127.97
2023-02-13T17:55:25.405Z,103145.25
2023-02-13T17:57:56.494Z,103139.28
2023-02-13T18:00:25.192Z,103127.09
2023-02-13T18:02:51.697Z,103123.69
2023-02-13T18:05:19.148Z,103129.28
2023-02-13T18:07:46.352Z,103127.75
2023-02-13T18:10:16.766Z,103135.81
2023-02-13T18:12:43.739Z,103132.19
2023-02-13T18:15:11.077Z,103138.47
2023-02-13T18:17:37.650Z,103132.22
2023-02-13T18:20:09.659Z,103137.84
2023-02-13T18:22:36.293Z,103131.69
2023-02-13T18:25:02.818Z,103137.00
2023-02-13T18:27:29.582Z,103137.97
2023-02-13T18:29:56.152Z,103140.72
2023-02-13T18:32:23.335Z,103133.88
2023-02-13T18:34:50.099Z,103139.31
2023-02-13T18:37:17.434Z,103132.16
2023-02-13T18:39:44.210Z,103136.72
2023-02-13T18:42:13.101Z,103126.16
2023-02-13T18:44:40.169Z,103126.38
2023-02-13T18:47:06.882Z,103127.53
2023-02-13T18:49:33.347Z,103127.66
2023-02-13T18:52:00.629Z,103121.53
2023-02-13T18:54:26.958Z,103122.44
2023-02-13T18:56:53.360Z,103121.00
2023-02-13T18:59:19.725Z,103118.47
2023-02-13T19:01:46.110Z,103115.94
2023-02-13T19:04:12.569Z,103117.03
2023-02-13T19:06:40.422Z,103122.63
2023-02-13T19:09:07.018Z,103123.44
2023-02-13T19:11:34.234Z,103119.97
2023-02-13T19:14:02.280Z,103129.84
2023-02-13T19:16:30.629Z,103133.44
2023-02-13T19:19:00.007Z,103124.66
2023-02-13T19:21:28.689Z,103136.31
2023-02-13T19:23:55.176Z,103132.91
2023-02-13T19:26:24.273Z,103121.53
2023-02-13T19:28:51.512Z,103131.41
2023-02-13T19:31:21.335Z,103130.72
2023-02-13T19:33:49.106Z,103128.16
2023-02-13T19:36:19.826Z,103138.03
2023-02-13T19:38:47.547Z,103141.72
2023-02-13T19:41:17.118Z,103134.69
2023-02-13T19:43:53.152Z,103139.13
2023-02-13T19:46:22.905Z,103138.34
2023-02-13T19:48:49.918Z,103141.88
2023-02-13T19:51:19.002Z,103136.63
2023-02-13T19:53:45.734Z,103140.22
2023-02-13T19:56:13.152Z,103150.06
2023-02-13T19:58:41.535Z,103143.00
2023-02-13T20:01:10.433Z,103139.47
2023-02-13T20:03:37.303Z,103142.19
2023-02-13T20:06:08.756Z,103144.94
2023-02-13T20:08:35.625Z,103144.13
2023-02-13T20:11:02.007Z,103140.66
2023-02-13T20:13:28.566Z,103139.84
2023-02-13T20:15:55.150Z,103137.22
2023-02-13T20:18:21.886Z,103134.59
2023-02-13T20:20:48.399Z,103135.56
2023-02-13T20:23:17.500Z,103133.84
2023-02-13T20:25:44.449Z,103134.81
2023-02-13T20:28:11.464Z,103131.34
2023-02-13T20:30:42.113Z,103130.47
2023-02-13T20:33:08.942Z,103140.28
2023-02-13T20:35:35.789Z,103127.00
2023-02-13T20:38:02.410Z,103123.53
2023-02-13T20:40:28.982Z,103124.44
2023-02-13T20:42:55.457Z,103123.63
2023-02-13T20:45:21.883Z,103128.06
2023-02-13T20:47:48.624Z,103124.59
2023-02-13T20:50:14.955Z,103122.00
2023-02-13T20:52:41.285Z,103118.47
2023-02-13T20:55:07.905Z,103115.03
2023-02-13T20:57:35.407Z,103122.16
2023-02-13T21:00:04.520Z,103111.59
2023-02-13T21:02:31.057Z,103119.59
2023-02-13T21:04:57.571Z,103126.75
2023-02-13T21:07:23.918Z,103121.47
2023-02-13T21:09:50.285Z,103123.25
2023-02-13T21:12:16.649Z,103117.13
2023-02-13T21:14:43.090Z,103126.94
2023-02-13T21:17:09.628Z,103119.88
2023-02-13T21:19:36.169Z,103128.72
2023-02-13T21:22:11.931Z,103127.03
2023-02-13T21:24:40.234Z,103135.94
2023-02-13T21:27:07.869Z,103138.56
2023-02-13T21:29:35.566Z,103139.53
2023-02-13T21:32:02.409Z,103133.34
2023-02-13T21:34:29.156Z,103128.13
2023-02-13T21:36:55.528Z,103131.66
2023-02-13T21:39:21.874Z,103130.88
2023-02-13T21:41:48.690Z,103130.00
2023-02-13T21:44:15.827Z,103129.13
2023-02-13T21:46:43.729Z,103130.91
2023-02-13T21:49:12.752Z,103129.16
2023-02-13T21:51:39.124Z,103127.44
2023-02-13T21:54:05.945Z,103123.91
2023-02-13T21:56:35.893Z,103124.88
2023-02-13T21:59:02.721Z,103117.81
2023-02-13T22:01:44.306Z,103117.84
2023-02-13T22:04:10.772Z,103118.72
2023-02-13T22:06:38.761Z,103116.94
2023-02-13T22:09:11.242Z,103117.81
2023-02-13T22:11:38.281Z,103118.72
2023-02-13T22:14:07.566Z,103112.56
2023-02-13T22:16:36.548Z,103110.81
2023-02-13T22:19:04.120Z,103122.31
2023-02-13T22:21:31.964Z,103114.38
2023-02-13T22:23:58.974Z,103119.69
2023-02-13T22:26:29.874Z,103121.47
2023-02-13T22:29:02.226Z,103124.16
2023-02-13T22:31:29.070Z,103127.63
2023-02-13T22:34:05.012Z,103125.94
2023-02-13T22:36:40.023Z,103123.31
2023-02-13T22:39:08.155Z,103127.78
2023-02-13T22:41:34.574Z,103126.00
2023-02-13T22:44:00.973Z,103122.47
2023-02-13T22:46:31.492Z,103130.44
2023-02-13T22:48:58.913Z,103123.38
2023-02-13T22:51:28.146Z,103127.78
2023-02-13T22:53:56.408Z,103131.34
2023-02-13T22:56:24.252Z,103134.88
2023-02-13T22:58:50.908Z,103137.53
2023-02-13T23:01:19.412Z,103124.31
2023-02-13T23:03:46.396Z,103125.22
2023-02-13T23:06:14.581Z,103126.09
2023-02-13T23:08:41.414Z,103123.44
2023-02-13T23:11:32.268Z,103127.00
2023-02-13T23:13:58.897Z,103126.09
2023-02-13T23:16:25.643Z,103122.56
2023-02-13T23:18:54.324Z,103119.91
2023-02-13T23:21:21.268Z,103126.13
2023-02-13T23:23:47.992Z,103120.78
2023-02-13T23:26:14.407Z,103117.28
2023-02-13T23:28:40.777Z,103121.72
2023-02-13T23:31:07.306Z,103132.28
2023-02-13T23:33:33.758Z,103125.25
2023-02-13T23:36:00.183Z,103133.19
2023-02-13T23:38:26.621Z,103126.13
2023-02-13T23:40:52.991Z,103123.47
2023-02-13T23:43:19.346Z,103127.00
2023-02-13T23:45:46.050Z,103126.13
2023-02-13T23:48:12.709Z,103123.50
2023-02-13T23:50:40.129Z,103127.00
2023-02-13T23:53:06.517Z,103121.72
2023-02-13T23:55:32.911Z,103120.81
2023-02-13T23:57:59.291Z,103108.47
